This is the latest recevied weather packets stored in our database for station/object EA4BCR. If no packets are shown the sender has not sent any weather packets the latest 10 day(s).
| Time | Temp. | Humidity | Pressure | Rain* | Wind** | Luminosity | Snow |
|---|---|---|---|---|---|---|---|
| 1787413809 | 31.67° C | 33% | 1009 hPa | - | - | - | - |
| 1787413209 | 31.67° C | 32% | 1009.1 hPa | - | - | - | - |
| 1787412609 | 32.22° C | 32% | 1009 hPa | - | - | - | - |
| 1787412009 | 31.11° C | 33% | 1009.4 hPa | - | - | - | - |
| 1787411409 | 30.56° C | 35% | 1009.4 hPa | - | - | - | - |
| 1787410809 | 31.67° C | 33% | 1009.1 hPa | - | - | - | - |
| 1787410209 | 30° C | 36% | 1009.8 hPa | - | - | - | - |
| 1787409609 | 28.89° C | 37% | 1009.9 hPa | - | - | - | - |
| 1787409009 | 30° C | 36% | 1009.6 hPa | - | - | - | - |
| 1787408409 | 30.56° C | 36% | 1009.6 hPa | - | - | - | - |
| 1787407809 | 30° C | 38% | 1010 hPa | - | - | - | - |
| 1787407209 | 30.56° C | 36% | 1009.8 hPa | - | - | - | - |
| 1787406609 | 31.11° C | 35% | 1009.7 hPa | - | - | - | - |
| 1787406009 | 31.67° C | 36% | 1009.5 hPa | - | - | - | - |
| 1787405409 | 32.22° C | 34% | 1009.5 hPa | - | - | - | - |
| 1787404809 | 32.22° C | 36% | 1009.5 hPa | - | - | - | - |
| 1787404209 | 32.78° C | 34% | 1009.4 hPa | - | - | - | - |
| 1787403609 | 32.22° C | 37% | 1009.6 hPa | - | - | - | - |
| 1787403009 | 33.33° C | 34% | 1009.3 hPa | - | - | - | - |
| 1787402409 | 31.11° C | 35% | 1010.2 hPa | - | - | - | - |
| 1787401809 | 32.22° C | 35% | 1009.7 hPa | - | - | - | - |
| 1787401209 | 31.11° C | 37% | 1010.2 hPa | - | - | - | - |
| 1787400612 | 32.22° C | 38% | 1010 hPa | - | - | - | - |
| 1787400009 | 32.22° C | 37% | 1010.1 hPa | - | - | - | - |
| 1787399409 | 34.44° C | 37% | 1009.4 hPa | - | - | - | - |
* Rain since midnight (hover to see other rain measurements)
** Current wind speed in m/s (hover to see current wind gust speed)